Time;durP1;ratioP1;P1;durP2;ratioP2;P2;SDS_P1;SDS_P2;PMS_P1;PMS_P2;Temp;Humidity;BMP_temperature;BMP_pressure;BME280_temperature;BME280_humidity;BME280_pressure;Samples;Min_cycle;Max_cycle;Signal;HPM_P1;HPM_P2
2021/04/29 00:01:07;;;;;;;3.53;1.80;;;;;;;16.38;23.33;99634.22;3537518;40;20404;-73
2021/04/29 00:03:36;;;;;;;3.35;1.73;;;;;;;16.37;23.45;99628.88;3541860;40;20066;-73
2021/04/29 00:06:23;;;;;;;4.68;1.80;;;;;;;16.34;23.35;99635.66;3541445;40;20085;-73
2021/04/29 00:09:10;;;;;;;3.03;1.50;;;;;;;16.31;24.17;99636.03;3552724;40;20104;-74
2021/04/29 00:12:01;;;;;;;3.55;1.58;;;;;;;16.27;24.10;99643.03;3531950;40;20087;-75
2021/04/29 00:14:30;;;;;;;2.97;1.45;;;;;;;16.23;23.59;99632.56;3535053;40;20048;-74
2021/04/29 00:16:57;;;;;;;3.55;1.90;;;;;;;16.21;23.56;99638.31;3542721;40;20057;-74
2021/04/29 00:19:27;;;;;;;3.03;1.50;;;;;;;16.21;23.88;99634.69;3546480;40;20392;-74
2021/04/29 00:21:54;;;;;;;2.88;1.48;;;;;;;16.17;23.82;99642.50;3540257;40;20059;-74
2021/04/29 00:24:22;;;;;;;3.35;1.70;;;;;;;16.13;24.13;99633.78;3542062;40;20137;-74
2021/04/29 00:26:50;;;;;;;2.42;1.60;;;;;;;16.11;23.81;99627.59;3540238;40;20050;-74
2021/04/29 00:29:18;;;;;;;2.58;1.50;;;;;;;16.09;24.15;99637.97;3541273;40;20065;-74
2021/04/29 00:31:45;;;;;;;2.65;1.60;;;;;;;16.05;24.02;99628.41;3540042;40;20079;-72
2021/04/29 00:34:14;;;;;;;3.33;1.88;;;;;;;16.01;24.55;99635.34;3533006;40;20075;-74
2021/04/29 00:36:42;;;;;;;4.10;1.90;;;;;;;16.00;24.44;99633.66;3546141;40;20046;-74
2021/04/29 00:39:09;;;;;;;3.08;1.90;;;;;;;15.97;24.58;99639.53;3540589;40;20054;-74
2021/04/29 00:41:36;;;;;;;2.97;1.90;;;;;;;15.95;24.68;99632.53;3545012;40;20090;-74
2021/04/29 00:44:05;;;;;;;2.30;1.67;;;;;;;15.93;24.76;99631.88;3539513;40;20066;-73
2021/04/29 00:46:35;;;;;;;4.00;1.90;;;;;;;15.91;25.03;99633.97;3539992;40;20098;-73
2021/04/29 00:49:04;;;;;;;3.85;1.83;;;;;;;15.86;24.36;99642.00;3543148;40;20053;-74
2021/04/29 00:51:32;;;;;;;2.90;1.85;;;;;;;15.83;25.02;99643.22;3541018;40;20047;-78
2021/04/29 00:54:00;;;;;;;2.97;1.80;;;;;;;15.81;24.91;99640.66;3544725;40;20284;-73
2021/04/29 00:56:28;;;;;;;3.67;1.88;;;;;;;15.77;24.79;99638.50;3540048;40;20499;-74
2021/04/29 00:59:03;;;;;;;3.20;1.77;;;;;;;15.73;24.88;99631.66;3543889;40;20070;-73
2021/04/29 01:01:35;;;;;;;2.70;1.50;;;;;;;15.71;25.09;99634.63;3546536;40;20063;-74
2021/04/29 01:04:18;;;;;;;3.42;1.60;;;;;;;15.70;25.40;99637.56;3541089;40;20054;-73
2021/04/29 01:06:49;;;;;;;3.30;1.67;;;;;;;15.66;25.23;99639.00;3539507;40;20059;-73
2021/04/29 01:09:23;;;;;;;2.95;1.52;;;;;;;15.64;25.57;99647.47;3545171;40;20058;-74
2021/04/29 01:11:57;;;;;;;3.42;1.65;;;;;;;15.61;25.90;99635.97;3544505;40;20152;-74
2021/04/29 01:14:26;;;;;;;3.40;2.00;;;;;;;15.58;25.51;99637.19;3542606;40;20400;-74
2021/04/29 01:16:55;;;;;;;4.68;1.65;;;;;;;15.54;25.35;99641.41;3542495;40;20039;-80
2021/04/29 01:19:31;;;;;;;3.20;1.77;;;;;;;15.53;25.98;99644.34;3549363;40;20054;-76
2021/04/29 01:21:59;;;;;;;3.80;1.70;;;;;;;15.46;25.54;99635.16;3540763;40;20058;-75
2021/04/29 01:24:34;;;;;;;2.58;1.60;;;;;;;15.46;26.03;99636.00;3543109;40;20094;-74
2021/04/29 01:27:02;;;;;;;2.90;1.60;;;;;;;15.42;25.98;99648.44;3539047;40;20065;-74
2021/04/29 01:29:32;;;;;;;3.00;1.52;;;;;;;15.39;25.88;99640.59;3535579;40;20054;-74
2021/04/29 01:32:00;;;;;;;3.45;1.92;;;;;;;15.36;26.25;99640.97;3539710;40;20055;-74
2021/04/29 01:34:33;;;;;;;2.88;2.00;;;;;;;15.33;26.16;99644.09;3540185;40;20055;-73
2021/04/29 01:37:01;;;;;;;3.97;1.67;;;;;;;15.29;26.22;99653.81;3540697;40;20062;-74
2021/04/29 01:39:29;;;;;;;3.53;1.83;;;;;;;15.27;25.88;99650.38;3542553;40;20050;-74
2021/04/29 01:41:58;;;;;;;3.15;1.70;;;;;;;15.24;26.22;99643.34;3537844;40;20050;-74
2021/04/29 01:44:28;;;;;;;3.20;2.10;;;;;;;15.24;26.42;99645.25;3543873;40;20051;-74
2021/04/29 01:46:58;;;;;;;2.97;1.80;;;;;;;15.21;26.27;99646.50;3547589;40;20338;-74
2021/04/29 01:49:27;;;;;;;3.60;1.85;;;;;;;15.18;26.45;99641.38;3542245;40;20046;-73
2021/04/29 01:51:54;;;;;;;2.83;1.92;;;;;;;15.17;26.45;99647.91;3542387;40;20404;-74
2021/04/29 01:54:22;;;;;;;3.97;2.15;;;;;;;15.15;26.27;99641.72;3542434;40;20049;-74
2021/04/29 01:56:50;;;;;;;3.33;2.00;;;;;;;15.13;26.42;99643.84;3543765;40;20082;-74
2021/04/29 01:59:19;;;;;;;4.65;2.08;;;;;;;15.13;25.86;99651.25;3539350;40;20070;-73
2021/04/29 02:01:49;;;;;;;3.63;2.30;;;;;;;15.11;26.20;99658.84;3536847;40;20137;-74
2021/04/29 02:04:16;;;;;;;4.70;2.50;;;;;;;15.09;26.39;99653.53;3542156;40;20046;-73
2021/04/29 02:06:45;;;;;;;3.85;2.17;;;;;;;15.08;26.53;99657.31;3538746;40;20063;-73
2021/04/29 02:09:13;;;;;;;4.63;2.40;;;;;;;15.06;26.37;99660.25;3539139;40;20058;-73
2021/04/29 02:11:47;;;;;;;4.00;2.38;;;;;;;15.09;26.71;99653.53;3542628;40;20054;-73
2021/04/29 02:14:18;;;;;;;5.03;2.70;;;;;;;15.06;26.52;99656.69;3539149;40;20054;-73
2021/04/29 02:16:49;;;;;;;4.35;2.40;;;;;;;15.06;26.49;99663.00;3539241;40;20054;-74
2021/04/29 02:19:20;;;;;;;4.00;2.50;;;;;;;15.07;26.75;99663.88;3538118;40;20395;-74
2021/04/29 02:21:50;;;;;;;3.80;2.35;;;;;;;15.04;26.51;99667.88;3540879;40;20057;-73
2021/04/29 02:24:20;;;;;;;6.30;3.10;;;;;;;15.04;26.24;99665.13;3540387;40;20082;-74
2021/04/29 02:26:49;;;;;;;4.45;2.58;;;;;;;15.05;26.57;99668.75;3538347;40;20046;-73
2021/04/29 02:29:18;;;;;;;4.20;2.60;;;;;;;15.04;26.66;99667.03;3542637;40;20062;-74
2021/04/29 02:31:46;;;;;;;5.40;2.85;;;;;;;15.03;26.31;99668.06;3538369;40;20058;-74
2021/04/29 02:34:16;;;;;;;4.28;2.83;;;;;;;15.04;26.56;99661.53;3540352;40;20058;-74
2021/04/29 02:36:43;;;;;;;5.35;3.20;;;;;;;15.04;26.64;99664.28;3539949;40;20055;-72
2021/04/29 02:39:11;;;;;;;5.35;3.20;;;;;;;15.03;26.47;99660.66;3539538;40;20446;-72
2021/04/29 02:41:40;;;;;;;5.47;3.72;;;;;;;15.04;26.86;99658.75;3534235;40;20333;-72
2021/04/29 02:44:09;;;;;;;5.35;3.38;;;;;;;15.02;26.73;99656.19;3539670;40;20043;-72
2021/04/29 02:46:40;;;;;;;4.80;3.50;;;;;;;15.04;27.28;99658.75;3538092;40;20131;-72
2021/04/29 02:49:08;;;;;;;5.88;3.53;;;;;;;15.01;26.87;99659.13;3536171;40;20374;-75
2021/04/29 02:51:38;;;;;;;6.47;3.83;;;;;;;15.01;27.07;99650.88;3545565;40;20066;-72
2021/04/29 02:54:09;;;;;;;6.45;3.88;;;;;;;15.00;27.20;99651.91;3543206;40;20046;-72
2021/04/29 02:56:40;;;;;;;5.63;3.78;;;;;;;15.00;27.08;99658.28;3545930;40;20505;-72
2021/04/29 02:59:08;;;;;;;6.25;3.80;;;;;;;14.97;27.30;99652.31;3541655;40;20107;-72
2021/04/29 03:01:36;;;;;;;4.53;3.20;;;;;;;14.97;27.21;99660.56;3542447;40;20066;-72
2021/04/29 03:04:04;;;;;;;4.60;3.35;;;;;;;14.95;27.08;99657.16;3541106;40;20042;-72
2021/04/29 03:06:31;;;;;;;6.65;4.10;;;;;;;14.93;27.29;99648.22;3544747;40;20259;-72
2021/04/29 03:08:59;;;;;;;5.88;3.83;;;;;;;14.93;27.34;99651.81;3541216;40;20042;-75
2021/04/29 03:11:27;;;;;;;7.13;4.03;;;;;;;14.90;27.30;99660.44;3547336;40;20058;-73
2021/04/29 03:13:54;;;;;;;4.97;3.50;;;;;;;14.89;27.49;99660.66;3540415;40;20058;-75
2021/04/29 03:16:22;;;;;;;6.15;3.72;;;;;;;14.88;27.16;99661.72;3536993;40;20066;-72
2021/04/29 03:18:49;;;;;;;6.55;4.50;;;;;;;14.87;27.36;99657.25;3544343;40;20077;-72
2021/04/29 03:21:24;;;;;;;7.20;4.18;;;;;;;14.85;27.41;99665.69;3540700;40;20157;-72
2021/04/29 03:23:59;;;;;;;6.70;4.43;;;;;;;14.85;27.65;99668.44;3538540;40;20050;-72
2021/04/29 03:26:42;;;;;;;7.55;3.92;;;;;;;14.80;27.65;99670.91;3541537;40;20058;-74
2021/04/29 03:29:11;;;;;;;6.20;4.10;;;;;;;14.78;27.86;99667.50;3538097;40;20038;-72
2021/04/29 03:31:58;;;;;;;5.78;3.35;;;;;;;14.74;27.82;99668.84;3543966;40;20050;-72
2021/04/29 03:34:43;;;;;;;5.43;3.60;;;;;;;14.71;27.96;99671.16;3538712;40;20046;-72
2021/04/29 03:37:30;;;;;;;6.68;4.15;;;;;;;14.70;27.78;99662.03;3539452;40;20051;-72
2021/04/29 03:40:19;;;;;;;6.47;4.40;;;;;;;14.71;27.71;99673.91;3540557;40;20248;-73
2021/04/29 03:43:13;;;;;;;6.50;4.50;;;;;;;14.67;27.61;99674.28;3542398;40;20427;-72
2021/04/29 03:46:00;;;;;;;7.43;4.75;;;;;;;14.62;27.86;99676.75;3542040;40;20125;-72
2021/04/29 03:48:47;;;;;;;5.85;4.38;;;;;;;14.58;27.91;99669.88;3540821;40;20117;-73
2021/04/29 03:51:34;;;;;;;6.45;3.78;;;;;;;14.54;28.08;99678.72;3540856;40;20039;-72
2021/04/29 03:54:23;;;;;;;6.10;3.83;;;;;;;14.51;28.21;99679.06;3536244;40;20046;-73
2021/04/29 03:57:11;;;;;;;7.60;4.68;;;;;;;14.48;28.42;99680.31;3542310;40;20055;-73
2021/04/29 03:59:58;;;;;;;8.00;4.57;;;;;;;14.44;28.37;99681.72;3539169;40;20395;-73
2021/04/29 04:02:45;;;;;;;7.72;5.53;;;;;;;14.42;28.58;99685.69;3545095;40;20383;-73
2021/04/29 04:05:32;;;;;;;8.10;4.95;;;;;;;14.38;28.52;99681.63;3538820;40;20053;-73
2021/04/29 04:08:19;;;;;;;9.30;5.60;;;;;;;14.35;28.60;99684.72;3539613;40;20143;-73
2021/04/29 04:11:06;;;;;;;8.32;5.53;;;;;;;14.30;28.58;99685.31;3547098;40;20050;-72
2021/04/29 04:13:55;;;;;;;10.77;6.60;;;;;;;14.27;28.64;99700.28;3543232;40;20428;-72
2021/04/29 04:16:43;;;;;;;8.52;5.78;;;;;;;14.19;28.76;99699.47;3541435;40;20066;-73
2021/04/29 04:19:30;;;;;;;8.50;5.97;;;;;;;14.13;28.79;99701.06;3545549;40;20047;-73
2021/04/29 04:22:17;;;;;;;8.80;6.03;;;;;;;14.09;28.77;99696.13;3540510;40;20066;-72
2021/04/29 04:25:19;;;;;;;9.15;6.57;;;;;;;14.06;28.93;99702.84;3541366;40;20050;-73
2021/04/29 04:28:07;;;;;;;7.80;5.15;;;;;;;14.00;29.02;99709.06;3500540;41;20075;-69
2021/04/29 04:30:55;;;;;;;8.75;5.35;;;;;;;13.96;29.47;99721.47;3498399;41;20096;-68
2021/04/29 04:33:42;;;;;;;9.60;5.53;;;;;;;13.92;29.33;99720.13;3496309;41;20036;-69
2021/04/29 04:36:29;;;;;;;7.97;5.28;;;;;;;13.90;29.71;99720.31;3494461;41;20123;-71
2021/04/29 04:39:17;;;;;;;9.32;6.03;;;;;;;13.90;29.44;99723.06;3499049;41;20029;-72
2021/04/29 04:42:04;;;;;;;8.75;5.88;;;;;;;13.89;29.70;99735.09;3500400;41;20052;-71
2021/04/29 04:44:51;;;;;;;8.55;5.85;;;;;;;13.89;29.79;99731.50;3502002;41;20096;-71
2021/04/29 04:47:40;;;;;;;10.63;6.97;;;;;;;13.93;29.97;99743.81;3498180;41;20503;-71
2021/04/29 04:50:27;;;;;;;8.82;6.00;;;;;;;13.91;29.69;99737.69;3495317;41;20049;-71
2021/04/29 04:52:54;;;;;;;8.73;5.95;;;;;;;13.91;29.84;99749.50;3500976;41;20092;-71
2021/04/29 04:55:22;;;;;;;9.43;6.40;;;;;;;13.92;29.72;99751.22;3502898;41;20105;-72
2021/04/29 04:57:50;;;;;;;7.35;5.53;;;;;;;13.91;29.89;99757.75;3496705;41;20096;-72
2021/04/29 05:00:20;;;;;;;6.90;5.63;;;;;;;13.93;29.95;99763.94;3500722;41;20065;-71
2021/04/29 05:02:49;;;;;;;8.85;5.97;;;;;;;13.95;29.89;99760.16;3502933;41;20041;-72
2021/04/29 05:05:23;;;;;;;9.45;6.53;;;;;;;13.95;29.98;99762.91;3527954;40;20050;-72
2021/04/29 05:07:51;;;;;;;9.00;6.55;;;;;;;13.96;29.86;99772.88;3543949;40;20400;-71
2021/04/29 05:10:18;;;;;;;10.25;7.05;;;;;;;13.95;30.07;99772.00;3542487;40;20061;-71
2021/04/29 05:12:46;;;;;;;9.35;6.47;;;;;;;13.96;29.67;99775.59;3543917;40;20135;-71
2021/04/29 05:15:14;;;;;;;10.10;7.47;;;;;;;13.95;29.77;99761.00;3542759;40;20076;-70
2021/04/29 05:17:41;;;;;;;12.63;7.30;;;;;;;13.95;29.90;99766.50;3538065;40;20087;-71
2021/04/29 05:20:11;;;;;;;10.70;7.60;;;;;;;13.97;30.01;99775.44;3537576;40;20051;-70
2021/04/29 05:22:56;;;;;;;10.02;7.07;;;;;;;13.95;30.00;99774.75;3537136;40;20405;-70
2021/04/29 05:25:29;;;;;;;10.65;7.45;;;;;;;13.97;30.08;99767.19;3538599;40;20347;-70
2021/04/29 05:28:01;;;;;;;9.75;6.68;;;;;;;14.03;30.52;99771.94;3538992;40;20057;-70
2021/04/29 05:30:30;;;;;;;12.97;7.73;;;;;;;14.03;30.21;99768.34;3536479;40;20058;-71
2021/04/29 05:32:57;;;;;;;11.07;8.25;;;;;;;14.09;29.95;99770.38;3540704;40;20049;-70
2021/04/29 05:35:45;;;;;;;13.02;8.95;;;;;;;14.15;30.04;99778.78;3538071;40;20046;-70
2021/04/29 05:38:14;;;;;;;14.23;8.93;;;;;;;14.19;30.22;99765.50;3537444;40;20093;-70
2021/04/29 05:40:50;;;;;;;11.77;8.65;;;;;;;14.23;29.76;99772.34;3537307;40;20042;-70
2021/04/29 05:43:22;;;;;;;11.80;9.18;;;;;;;14.29;29.80;99777.13;3537475;40;20141;-70
2021/04/29 05:45:59;;;;;;;13.50;9.38;;;;;;;14.28;29.97;99768.00;3538765;40;20090;-71
2021/04/29 05:48:32;;;;;;;10.85;8.32;;;;;;;14.29;29.90;99777.97;3536587;40;20058;-71
2021/04/29 05:51:01;;;;;;;14.27;8.82;;;;;;;14.34;29.72;99771.91;3536496;40;20046;-71
2021/04/29 05:53:29;;;;;;;12.13;8.45;;;;;;;14.33;29.56;99770.19;3540910;40;20055;-71
2021/04/29 05:55:57;;;;;;;11.13;8.13;;;;;;;14.35;29.87;99773.63;3537102;40;20055;-71
2021/04/29 05:58:24;;;;;;;11.82;8.80;;;;;;;14.38;29.97;99769.66;3536636;40;20099;-71
2021/04/29 06:00:52;;;;;;;12.65;8.77;;;;;;;14.42;29.96;99771.00;3537723;40;20051;-71
2021/04/29 06:03:25;;;;;;;13.93;8.65;;;;;;;14.44;30.06;99775.28;3538916;40;20066;-70
2021/04/29 06:06:06;;;;;;;9.70;7.32;;;;;;;14.50;30.10;99782.78;3536842;40;20141;-70
2021/04/29 06:08:54;;;;;;;11.13;8.00;;;;;;;14.53;29.72;99781.56;3539651;40;20058;-71
2021/04/29 06:11:41;;;;;;;10.32;7.95;;;;;;;14.58;29.39;99790.13;3538140;40;20117;-70
2021/04/29 06:14:29;;;;;;;15.55;9.57;;;;;;;14.64;29.32;99782.00;3536453;40;20078;-72
2021/04/29 06:17:16;;;;;;;12.45;9.02;;;;;;;14.68;29.67;99788.84;3538273;40;20050;-73
2021/04/29 06:19:44;;;;;;;12.57;8.45;;;;;;;14.75;29.35;99793.59;3537209;40;20091;-73
2021/04/29 06:22:18;;;;;;;13.70;9.63;;;;;;;14.83;29.10;99796.31;3535090;40;20110;-73
2021/04/29 06:25:07;;;;;;;12.55;9.73;;;;;;;14.87;29.37;99789.41;3537114;40;20046;-73
2021/04/29 06:27:54;;;;;;;12.20;9.65;;;;;;;14.91;29.46;99799.84;3539966;40;20301;-74
2021/04/29 06:30:41;;;;;;;11.30;9.35;;;;;;;14.98;29.45;99800.81;3531999;40;21056;-71
2021/04/29 06:33:30;;;;;;;12.13;8.95;;;;;;;15.07;29.05;99802.44;3534103;40;20081;-74
2021/04/29 06:36:17;;;;;;;11.38;8.35;;;;;;;15.20;29.08;99806.47;3532385;40;20078;-73
2021/04/29 06:39:06;;;;;;;11.60;9.07;;;;;;;15.47;29.78;99811.34;3535772;40;20125;-74
2021/04/29 06:41:53;;;;;;;12.88;9.15;;;;;;;15.83;29.78;99800.41;3532404;40;20071;-72
2021/04/29 06:44:41;;;;;;;12.75;9.98;;;;;;;16.30;28.95;99812.88;3533463;40;20061;-72
2021/04/29 06:47:31;;;;;;;13.40;10.40;;;;;;;16.66;28.48;99822.00;3535562;40;20066;-73
2021/04/29 06:50:03;;;;;;;11.98;9.98;;;;;;;16.90;27.92;99816.06;3531812;40;20351;-73
2021/04/29 06:52:50;;;;;;;11.90;9.18;;;;;;;17.06;27.58;99816.81;3534489;40;20479;-72
2021/04/29 06:55:38;;;;;;;14.07;10.32;;;;;;;17.22;27.76;99819.28;3543990;40;20053;-72
2021/04/29 06:58:27;;;;;;;13.13;10.52;;;;;;;17.29;26.97;99818.31;3534332;40;20510;-72
2021/04/29 07:01:14;;;;;;;13.68;10.85;;;;;;;17.39;26.77;99828.16;3535303;40;20066;-71
2021/04/29 07:04:03;;;;;;;15.45;11.63;;;;;;;17.45;26.55;99819.94;3542952;40;20075;-73
2021/04/29 07:06:50;;;;;;;16.23;11.70;;;;;;;17.49;26.58;99834.19;3542209;40;20307;-72
2021/04/29 07:09:37;;;;;;;16.60;12.57;;;;;;;17.53;26.58;99810.63;3539724;40;20348;-74
2021/04/29 07:12:25;;;;;;;17.17;13.60;;;;;;;17.56;26.28;99827.66;3533026;40;20704;-74
2021/04/29 07:15:14;;;;;;;17.33;13.20;;;;;;;17.54;26.09;99828.91;3534690;40;20301;-73
2021/04/29 07:18:04;;;;;;;17.30;13.80;;;;;;;17.52;26.12;99829.13;3537314;40;20359;-73
2021/04/29 07:20:54;;;;;;;17.77;13.80;;;;;;;17.50;26.60;99833.16;3534369;40;20095;-75
2021/04/29 07:23:42;;;;;;;23.95;17.38;;;;;;;17.49;26.49;99840.59;3536356;40;20370;-74
2021/04/29 07:26:34;;;;;;;21.08;16.02;;;;;;;17.46;26.53;99837.38;3537111;40;20046;-74
2021/04/29 07:29:22;;;;;;;26.75;18.38;;;;;;;17.44;26.24;99845.88;3537016;40;21036;-75
2021/04/29 07:32:09;;;;;;;22.00;17.10;;;;;;;17.33;26.24;99840.03;3534564;40;20133;-76
2021/04/29 07:34:57;;;;;;;22.25;17.10;;;;;;;17.25;26.68;99839.09;3535218;40;20071;-74
2021/04/29 07:37:44;;;;;;;25.17;19.17;;;;;;;17.20;26.73;99835.25;3534299;40;20491;-73
2021/04/29 07:40:32;;;;;;;23.98;18.23;;;;;;;17.14;26.92;99847.94;3532053;40;20311;-75
2021/04/29 07:43:20;;;;;;;21.80;16.80;;;;;;;17.08;26.96;99853.41;3534574;40;20047;-73
2021/04/29 07:46:08;;;;;;;21.60;16.23;;;;;;;17.05;27.15;99854.66;3532838;40;20087;-73
2021/04/29 07:48:55;;;;;;;22.92;17.55;;;;;;;17.05;27.18;99860.19;3532790;40;20092;-73
2021/04/29 07:51:42;;;;;;;27.83;20.33;;;;;;;17.06;27.38;99850.84;3533767;40;20086;-73
2021/04/29 07:54:13;;;;;;;25.95;18.50;;;;;;;17.03;27.05;99848.50;3532572;40;20091;-73
2021/04/29 07:56:41;;;;;;;25.25;17.90;;;;;;;17.01;27.41;99856.13;3533221;40;20062;-72
2021/04/29 07:59:08;;;;;;;24.35;17.77;;;;;;;16.99;26.85;99854.59;3532537;40;20046;-73
2021/04/29 08:01:42;;;;;;;22.13;17.30;;;;;;;16.99;27.35;99860.13;3538860;40;20086;-73
2021/04/29 08:04:10;;;;;;;27.25;17.77;;;;;;;16.99;27.19;99865.66;3541427;40;20133;-73
2021/04/29 08:06:40;;;;;;;24.83;18.77;;;;;;;17.02;27.43;99859.75;3540208;40;20047;-73
2021/04/29 08:09:07;;;;;;;27.20;18.58;;;;;;;17.04;27.04;99860.41;3515852;40;20357;-72
2021/04/29 08:11:38;;;;;;;24.08;18.05;;;;;;;17.07;27.51;99852.56;3537741;40;20133;-72
2021/04/29 08:14:06;;;;;;;24.55;18.88;;;;;;;17.11;26.76;99870.47;3541581;40;20089;-72
2021/04/29 08:16:34;;;;;;;24.77;17.67;;;;;;;17.10;26.73;99876.19;3542634;40;20054;-72
2021/04/29 08:19:04;;;;;;;26.15;18.70;;;;;;;17.14;26.54;99885.75;3539519;40;20137;-72
2021/04/29 08:21:50;;;;;;;24.52;16.83;;;;;;;17.12;26.84;99871.31;3541135;40;20429;-73
2021/04/29 08:24:25;;;;;;;26.55;19.35;;;;;;;17.15;26.46;99876.44;3538503;40;20051;-73
2021/04/29 08:27:02;;;;;;;25.13;18.33;;;;;;;17.15;26.56;99876.44;3537743;40;20059;-74
2021/04/29 08:29:35;;;;;;;24.45;17.88;;;;;;;17.09;26.73;99872.56;3533313;40;20050;-73
2021/04/29 08:32:22;;;;;;;23.95;17.92;;;;;;;17.05;26.49;99879.53;3536114;40;20137;-73
2021/04/29 08:35:01;;;;;;;26.42;19.27;;;;;;;17.05;26.53;99878.66;3544482;40;20343;-73
2021/04/29 08:37:49;;;;;;;20.95;15.52;;;;;;;16.99;26.48;99880.31;3546177;40;20046;-73
2021/04/29 08:40:36;;;;;;;23.00;16.15;;;;;;;16.97;26.23;99889.84;3537428;40;20027;-71
2021/04/29 08:43:06;;;;;;;21.88;15.05;;;;;;;16.96;26.77;99889.00;3537911;40;20082;-71
2021/04/29 08:45:38;;;;;;;21.73;15.90;;;;;;;16.94;26.84;99888.34;3546233;40;20062;-71
2021/04/29 08:48:23;;;;;;;19.25;13.88;;;;;;;17.00;26.33;99890.31;3527222;40;20042;-73
2021/04/29 08:51:11;;;;;;;19.15;13.73;;;;;;;17.02;26.97;99892.91;3537063;40;20125;-73
2021/04/29 08:53:58;;;;;;;21.45;17.30;;;;;;;17.09;26.70;99900.19;3543393;40;20047;-72
2021/04/29 08:56:28;;;;;;;20.13;14.68;;;;;;;17.14;26.53;99903.19;3537275;40;20133;-71
2021/04/29 08:58:58;;;;;;;22.63;16.65;;;;;;;17.22;26.63;99907.72;3531141;40;20082;-73
2021/04/29 09:01:27;;;;;;;21.90;16.70;;;;;;;17.28;26.21;99912.53;3536770;40;20058;-74
2021/04/29 09:04:09;;;;;;;25.13;17.08;;;;;;;17.36;25.97;99906.00;3545987;40;20318;-73
2021/04/29 09:06:45;;;;;;;22.10;15.00;;;;;;;17.32;25.94;99902.75;3541413;40;20039;-71
2021/04/29 09:09:13;;;;;;;20.50;15.00;;;;;;;17.31;25.29;99912.09;3544905;40;20046;-71
2021/04/29 09:12:02;;;;;;;21.05;15.77;;;;;;;17.29;25.87;99914.22;3541483;40;20059;-72
2021/04/29 09:14:56;;;;;;;19.83;15.48;;;;;;;17.24;25.52;99914.78;3539581;40;20351;-72
2021/04/29 09:17:43;;;;;;;20.98;15.25;;;;;;;17.22;25.91;99913.25;3541451;40;20061;-73
2021/04/29 09:20:31;;;;;;;19.42;15.27;;;;;;;17.20;26.14;99913.50;3540790;40;20043;-73
2021/04/29 09:23:18;;;;;;;18.25;14.18;;;;;;;17.16;25.54;99920.44;3537466;40;20042;-74
2021/04/29 09:26:07;;;;;;;18.42;14.95;;;;;;;17.16;25.96;99917.69;3541098;40;20061;-74
2021/04/29 09:28:55;;;;;;;21.30;14.90;;;;;;;17.13;25.98;99926.34;3539463;40;20054;-75
2021/04/29 09:31:44;;;;;;;22.42;15.85;;;;;;;17.09;25.63;99926.97;3545075;40;20416;-75
2021/04/29 09:34:12;;;;;;;19.60;15.32;;;;;;;17.04;25.87;99919.28;3538705;40;20073;-75
2021/04/29 09:36:42;;;;;;;22.23;15.85;;;;;;;17.04;25.54;99923.94;3538258;40;20054;-75
2021/04/29 09:39:18;;;;;;;19.27;14.48;;;;;;;17.01;25.76;99918.81;3532098;40;20053;-74
2021/04/29 09:42:05;;;;;;;17.20;12.38;;;;;;;16.94;26.10;99936.19;3538519;40;20041;-76
2021/04/29 09:44:37;;;;;;;17.92;13.90;;;;;;;16.93;26.04;99934.47;3535626;40;20051;-75
2021/04/29 09:47:32;;;;;;;18.70;13.48;;;;;;;16.96;25.46;99940.66;3539441;40;20051;-74
2021/04/29 09:50:26;;;;;;;19.13;13.60;;;;;;;16.95;25.91;99920.47;3540721;40;20121;-74
2021/04/29 09:53:16;;;;;;;16.20;12.90;;;;;;;16.92;25.55;99931.91;3536448;40;20082;-74
2021/04/29 09:56:08;;;;;;;15.02;11.27;;;;;;;16.93;25.65;99928.94;3535307;40;20292;-72
2021/04/29 09:58:57;;;;;;;15.43;12.07;;;;;;;16.92;25.98;99938.28;3540704;40;20071;-71
2021/04/29 10:01:45;;;;;;;16.33;12.05;;;;;;;16.96;25.73;99938.72;3541280;40;20058;-73
2021/04/29 10:04:33;;;;;;;15.00;12.13;;;;;;;16.98;25.49;99950.44;3539085;40;20058;-73
2021/04/29 10:07:22;;;;;;;14.48;10.95;;;;;;;16.98;25.02;99941.28;3537908;40;20071;-73
2021/04/29 10:10:12;;;;;;;15.32;10.75;;;;;;;16.95;25.24;99945.31;3534033;40;20057;-74
2021/04/29 10:13:02;;;;;;;13.00;11.00;;;;;;;16.93;25.11;99953.81;3539728;40;20315;-74
2021/04/29 10:15:49;;;;;;;12.82;10.40;;;;;;;16.88;24.87;99956.28;3539285;40;20508;-73
2021/04/29 10:18:37;;;;;;;13.00;9.38;;;;;;;16.86;25.16;99952.88;3546145;40;20051;-74
2021/04/29 10:21:25;;;;;;;12.57;9.13;;;;;;;16.82;25.22;99948.78;3538936;40;20393;-73
2021/04/29 10:24:16;;;;;;;10.60;8.77;;;;;;;16.83;24.53;99949.63;3541186;40;20050;-74
2021/04/29 10:27:05;;;;;;;11.75;10.10;;;;;;;16.80;24.34;99937.06;3535365;40;20053;-74
2021/04/29 10:30:04;;;;;;;11.90;9.07;;;;;;;16.79;24.66;99948.34;3537359;40;21859;-74
2021/04/29 10:32:51;;;;;;;11.63;9.38;;;;;;;16.71;24.92;99948.44;3539396;40;20055;-74
2021/04/29 10:35:50;;;;;;;14.07;10.27;;;;;;;16.75;24.40;99950.63;3539095;40;20059;-73
2021/04/29 10:38:24;;;;;;;12.60;10.88;;;;;;;16.72;24.64;99948.22;3538007;40;20039;-74
2021/04/29 10:40:51;;;;;;;13.70;8.90;;;;;;;16.68;24.63;99946.06;3542297;40;20121;-74
2021/04/29 10:43:33;;;;;;;14.30;10.10;;;;;;;16.73;24.95;99957.38;3540649;40;20424;-74
2021/04/29 10:46:04;;;;;;;13.82;10.57;;;;;;;16.73;24.95;99936.13;3542311;40;20054;-74
2021/04/29 10:48:49;;;;;;;12.25;9.63;;;;;;;16.72;24.99;99942.72;3543727;40;20050;-74
2021/04/29 10:51:16;;;;;;;12.00;9.73;;;;;;;;;;3539868;40;20072;-74
2021/04/29 10:53:43;;;;;;;12.43;9.45;;;;;;;;;;3541248;40;20075;-74
2021/04/29 10:56:14;;;;;;;11.32;9.60;;;;;;;16.72;24.67;99964.81;3540162;40;20422;-74
2021/04/29 10:58:42;;;;;;;12.55;9.50;;;;;;;16.71;24.86;99942.94;3539099;40;20067;-73
2021/04/29 11:01:14;;;;;;;12.40;9.35;;;;;;;16.72;24.44;99956.50;3540476;40;20054;-73
2021/04/29 11:03:46;;;;;;;13.60;9.73;;;;;;;16.68;24.89;99957.13;3540227;40;20066;-73
2021/04/29 11:06:15;;;;;;;13.68;10.88;;;;;;;16.64;24.57;99969.56;3538131;40;20149;-74
2021/04/29 11:08:46;;;;;;;13.05;10.30;;;;;;;16.63;24.80;99965.97;3537846;40;20423;-74
2021/04/29 11:11:26;;;;;;;12.10;9.90;;;;;;;16.61;24.75;99986.56;3536997;40;20057;-74
2021/04/29 11:14:02;;;;;;;16.00;11.48;;;;;;;16.55;24.90;100011.09;3545554;40;20453;-74
2021/04/29 11:16:43;;;;;;;13.85;11.52;;;;;;;16.43;25.07;100011.75;3549539;40;20053;-74
2021/04/29 11:19:39;;;;;;;13.98;10.05;;;;;;;16.29;25.51;100023.66;3541896;40;20053;-74
2021/04/29 11:22:24;;;;;;;10.43;7.70;;;;;;;16.11;25.49;100026.78;3541010;40;20404;-75
2021/04/29 11:24:55;;;;;;;6.97;5.85;;;;;;;15.91;25.90;100022.84;3545186;40;20051;-74
2021/04/29 11:27:25;;;;;;;8.10;6.20;;;;;;;15.79;26.63;100036.25;3542349;40;20054;-76
2021/04/29 11:30:03;;;;;;;6.90;5.63;;;;;;;15.60;27.00;100023.78;3543379;40;20061;-76
2021/04/29 11:32:34;;;;;;;7.15;5.38;;;;;;;15.40;27.07;100023.41;3545546;40;20396;-76
2021/04/29 11:35:06;;;;;;;6.95;5.25;;;;;;;15.25;27.21;100025.25;3532412;40;20031;-76
2021/04/29 11:37:42;;;;;;;6.53;4.80;;;;;;;15.16;27.93;100026.34;3537709;40;20050;-73
2021/04/29 11:40:12;;;;;;;7.65;5.40;;;;;;;15.07;27.89;100017.28;3538415;40;20035;-74
2021/04/29 11:42:42;;;;;;;6.50;4.70;;;;;;;15.02;28.07;100008.72;3543114;40;20034;-73
2021/04/29 11:45:12;;;;;;;7.75;5.50;;;;;;;15.05;28.29;100016.63;3539359;40;20054;-73
2021/04/29 11:47:54;;;;;;;7.60;5.07;;;;;;;15.04;28.31;100012.16;3538968;40;20050;-74
2021/04/29 11:50:24;;;;;;;7.97;5.85;;;;;;;15.05;28.21;100010.28;3537908;40;20051;-73
2021/04/29 11:53:05;;;;;;;8.27;5.90;;;;;;;15.11;28.25;100015.03;3541107;40;20050;-74
2021/04/29 11:55:37;;;;;;;;;;;;;;;14.84;27.88;100019.16;3536059;40;20070;-76
2021/04/29 11:58:07;;;;;;;8.68;6.45;;;;;;;15.06;28.11;100043.13;3540704;40;19945;-76
2021/04/29 12:00:56;;;;;;;7.50;6.10;;;;;;;15.10;28.27;100046.38;3539631;40;20316;-74
2021/04/29 12:03:28;;;;;;;7.10;5.70;;;;;;;15.05;27.96;100060.72;3538723;40;20062;-76
2021/04/29 12:05:58;;;;;;;6.57;5.22;;;;;;;15.02;28.04;100052.78;3543434;40;20400;-75
2021/04/29 12:08:45;;;;;;;6.50;5.00;;;;;;;14.95;27.82;100051.81;3536393;40;20400;-76
2021/04/29 12:11:32;;;;;;;8.40;5.38;;;;;;;14.93;27.73;100067.63;3536681;40;20352;-76
2021/04/29 12:14:23;;;;;;;6.80;5.07;;;;;;;14.93;27.55;100058.53;3535673;40;20054;-77